Time;durP1;ratioP1;P1;durP2;ratioP2;P2;SDS_P1;SDS_P2;PMS_P1;PMS_P2;Temp;Humidity;BMP_temperature;BMP_pressure;BME280_temperature;BME280_humidity;BME280_pressure;Samples;Min_cycle;Max_cycle;Signal;HPM_P1;HPM_P2
2023/08/14 00:01:01;;;;;;;6.40;2.85;;;16.60;99.90;;;;;;4993466;28;20420;-78
2023/08/14 00:03:26;;;;;;;8.75;2.40;;;16.60;99.90;;;;;;4993846;28;20026;-78
2023/08/14 00:05:52;;;;;;;7.32;2.40;;;16.50;99.90;;;;;;4993583;28;20352;-77
2023/08/14 00:08:19;;;;;;;9.35;2.60;;;16.50;99.90;;;;;;4993439;28;20471;-78
2023/08/14 00:10:45;;;;;;;9.82;2.45;;;16.40;99.90;;;;;;4992258;28;20053;-79
2023/08/14 00:13:11;;;;;;;11.25;2.80;;;16.40;99.90;;;;;;4993396;28;20037;-78
2023/08/14 00:15:37;;;;;;;11.52;2.50;;;16.50;99.90;;;;;;4993398;28;20465;-79
2023/08/14 00:18:04;;;;;;;11.45;2.83;;;16.40;99.90;;;;;;4991728;28;20062;-78
2023/08/14 00:20:30;;;;;;;6.82;2.45;;;16.50;99.90;;;;;;4992938;28;20053;-77
2023/08/14 00:22:55;;;;;;;7.30;2.40;;;16.50;99.90;;;;;;4992699;28;20026;-77
2023/08/14 00:25:22;;;;;;;9.25;2.42;;;16.50;99.90;;;;;;4976391;28;20069;-78
2023/08/14 00:27:47;;;;;;;7.30;2.38;;;16.40;99.90;;;;;;4992688;28;20125;-78
2023/08/14 00:30:13;;;;;;;10.55;2.55;;;16.40;99.90;;;;;;4994257;28;20050;-78
2023/08/14 00:32:39;;;;;;;6.30;2.10;;;16.30;99.90;;;;;;4994461;28;20026;-79
2023/08/14 00:35:05;;;;;;;6.05;1.67;;;16.30;99.90;;;;;;4991622;28;20648;-79
2023/08/14 00:37:45;;;;;;;6.25;2.42;;;16.30;99.90;;;;;;4993143;28;20031;-78
2023/08/14 00:40:12;;;;;;;11.63;2.40;;;16.20;99.90;;;;;;4991551;28;20038;-77
2023/08/14 00:42:39;;;;;;;5.50;2.28;;;16.20;99.90;;;;;;4992805;28;20035;-77
2023/08/14 00:45:06;;;;;;;9.00;2.10;;;16.10;99.90;;;;;;4992466;28;20642;-79
2023/08/14 00:47:36;;;;;;;6.13;2.40;;;16.00;99.90;;;;;;4992741;28;20031;-78
2023/08/14 00:50:09;;;;;;;6.97;2.47;;;16.00;99.90;;;;;;4992172;28;20076;-77
2023/08/14 00:52:39;;;;;;;10.43;2.50;;;15.90;99.90;;;;;;4993266;28;20053;-78
2023/08/14 00:55:08;;;;;;;10.73;2.83;;;15.90;99.90;;;;;;4990501;28;20070;-78
2023/08/14 00:57:35;;;;;;;7.50;2.30;;;15.80;99.90;;;;;;4991002;28;20097;-78
2023/08/14 01:00:03;;;;;;;7.80;2.72;;;15.70;99.90;;;;;;4993066;28;20045;-79
2023/08/14 01:02:30;;;;;;;10.05;2.42;;;15.60;99.90;;;;;;4993408;28;20104;-79
2023/08/14 01:04:56;;;;;;;9.85;2.42;;;15.50;99.90;;;;;;4992730;28;20034;-78
2023/08/14 01:07:24;;;;;;;11.25;3.10;;;15.50;99.90;;;;;;4993149;28;20364;-78
2023/08/14 01:09:50;;;;;;;8.68;2.33;;;15.40;99.90;;;;;;4992375;28;20034;-77
2023/08/14 01:12:43;;;;;;;6.90;2.65;;;15.40;99.90;;;;;;4993302;28;20057;-78
2023/08/14 01:15:15;;;;;;;9.85;2.55;;;15.40;99.90;;;;;;4992711;28;20425;-78
2023/08/14 01:17:50;;;;;;;16.48;2.80;;;15.30;99.90;;;;;;4992614;28;20057;-77
2023/08/14 01:20:18;;;;;;;6.38;2.78;;;15.30;99.90;;;;;;4992755;28;20069;-76
2023/08/14 01:22:56;;;;;;;9.52;2.92;;;15.20;99.90;;;;;;4992703;28;20110;-77
2023/08/14 01:25:27;;;;;;;10.05;3.20;;;15.20;99.90;;;;;;4992717;28;20030;-78
2023/08/14 01:27:54;;;;;;;9.45;3.08;;;15.10;99.90;;;;;;4992037;28;20026;-78
2023/08/14 01:30:22;;;;;;;12.32;2.80;;;15.10;99.90;;;;;;4992500;28;20121;-77
2023/08/14 01:32:49;;;;;;;9.02;2.65;;;15.10;99.90;;;;;;4991913;28;20069;-77
2023/08/14 01:35:17;;;;;;;7.85;2.45;;;15.10;99.90;;;;;;4992385;28;20110;-77
2023/08/14 01:38:04;;;;;;;9.13;2.70;;;15.10;99.90;;;;;;4992929;28;20229;-77
2023/08/14 01:41:01;;;;;;;8.98;2.92;;;15.10;99.90;;;;;;4992155;28;20081;-78
2023/08/14 01:43:33;;;;;;;9.90;2.45;;;15.10;99.90;;;;;;4972230;28;20046;-77
2023/08/14 01:45:59;;;;;;;7.43;2.30;;;15.10;99.90;;;;;;4990888;28;20034;-78
2023/08/14 01:48:26;;;;;;;11.63;3.20;;;15.00;99.90;;;;;;4993145;28;20447;-78
2023/08/14 01:50:55;;;;;;;12.85;3.08;;;15.00;99.90;;;;;;4991641;28;20026;-78
2023/08/14 01:53:21;;;;;;;9.02;2.92;;;15.10;99.90;;;;;;4992050;28;20423;-78
2023/08/14 01:55:47;;;;;;;6.35;2.67;;;15.10;99.90;;;;;;4992120;28;20037;-77
2023/08/14 01:58:12;;;;;;;10.43;2.75;;;15.00;99.90;;;;;;4991066;28;20091;-78
2023/08/14 02:00:38;;;;;;;11.25;2.80;;;15.00;99.90;;;;;;4991136;28;20500;-78
2023/08/14 02:03:05;;;;;;;8.00;2.47;;;14.90;99.90;;;;;;4992092;28;20045;-78
2023/08/14 02:05:30;;;;;;;8.55;2.72;;;14.90;99.90;;;;;;4990465;28;20046;-77
2023/08/14 02:07:56;;;;;;;11.45;3.35;;;14.90;99.90;;;;;;4991242;28;20022;-78
2023/08/14 02:10:22;;;;;;;11.85;2.90;;;14.90;99.90;;;;;;4992194;28;20476;-78
2023/08/14 02:12:47;;;;;;;7.50;2.97;;;15.00;99.90;;;;;;4991383;28;20097;-78
2023/08/14 02:15:13;;;;;;;11.15;3.30;;;15.00;99.90;;;;;;4989559;28;20022;-77
2023/08/14 02:17:39;;;;;;;6.32;2.45;;;14.90;99.90;;;;;;4991351;28;20510;-79
2023/08/14 02:20:05;;;;;;;9.32;2.85;;;14.90;99.90;;;;;;4990641;28;20035;-78
2023/08/14 02:22:31;;;;;;;6.43;2.45;;;15.00;99.90;;;;;;4991488;28;20432;-78
2023/08/14 02:24:57;;;;;;;5.75;2.63;;;15.00;99.90;;;;;;4990818;28;20030;-77
2023/08/14 02:27:22;;;;;;;6.95;2.80;;;15.00;99.90;;;;;;4990344;28;20136;-78
2023/08/14 02:29:48;;;;;;;11.25;2.45;;;15.10;99.90;;;;;;4990152;28;20050;-77
2023/08/14 02:32:14;;;;;;;9.30;2.53;;;15.10;99.90;;;;;;4990714;28;20081;-77
2023/08/14 02:34:47;;;;;;;9.48;2.92;;;15.10;99.90;;;;;;4991740;28;20035;-77
2023/08/14 02:37:15;;;;;;;13.65;3.05;;;15.10;99.90;;;;;;4991123;28;20026;-77
2023/08/14 02:39:41;;;;;;;5.72;2.45;;;15.10;99.90;;;;;;4991590;28;20109;-77
2023/08/14 02:42:07;;;;;;;13.35;3.00;;;15.10;99.90;;;;;;4990907;28;20062;-77
2023/08/14 02:44:34;;;;;;;6.97;2.22;;;15.10;99.90;;;;;;4990359;28;20069;-77
2023/08/14 02:47:00;;;;;;;8.93;2.97;;;15.10;99.90;;;;;;4990751;28;20023;-77
2023/08/14 02:49:26;;;;;;;6.72;2.42;;;15.20;99.90;;;;;;4990913;28;20116;-77
2023/08/14 02:51:52;;;;;;;7.75;2.30;;;15.10;99.90;;;;;;4991179;28;20062;-77
2023/08/14 02:54:18;;;;;;;8.30;2.78;;;15.10;99.90;;;;;;4991076;28;20101;-76
2023/08/14 02:56:44;;;;;;;5.88;2.33;;;15.00;99.90;;;;;;4990946;28;20140;-79
2023/08/14 02:59:09;;;;;;;7.03;2.58;;;15.00;99.90;;;;;;4990832;28;20062;-78
2023/08/14 03:01:35;;;;;;;7.18;2.13;;;15.00;99.90;;;;;;4991392;28;20105;-78
2023/08/14 03:04:01;;;;;;;8.05;2.85;;;15.00;99.90;;;;;;4990603;28;20038;-76
2023/08/14 03:06:29;;;;;;;8.75;3.00;;;15.00;99.90;;;;;;4991218;28;20379;-76
2023/08/14 03:08:55;;;;;;;6.30;2.33;;;14.90;99.90;;;;;;4990777;28;20053;-77
2023/08/14 03:11:22;;;;;;;7.70;2.60;;;15.00;99.90;;;;;;4990897;28;20066;-76
2023/08/14 03:13:48;;;;;;;7.85;2.42;;;15.00;99.90;;;;;;4989442;28;20081;-77
2023/08/14 03:16:13;;;;;;;7.82;2.63;;;15.00;99.90;;;;;;4990596;28;20029;-77
2023/08/14 03:18:40;;;;;;;10.00;2.72;;;15.00;99.90;;;;;;4991198;28;20034;-77
2023/08/14 03:21:06;;;;;;;8.98;2.55;;;14.90;99.90;;;;;;4990565;28;20116;-79
2023/08/14 03:23:31;;;;;;;8.63;3.08;;;14.90;99.90;;;;;;4990840;28;20058;-78
2023/08/14 03:25:57;;;;;;;11.23;3.47;;;14.90;99.90;;;;;;4990430;28;20463;-78
2023/08/14 03:28:23;;;;;;;7.47;2.80;;;14.90;99.90;;;;;;4991074;28;20034;-78
2023/08/14 03:30:50;;;;;;;10.57;3.20;;;14.90;99.90;;;;;;4989790;28;20026;-78
2023/08/14 03:33:16;;;;;;;9.73;2.95;;;14.90;99.90;;;;;;4990413;28;20647;-78
2023/08/14 03:35:41;;;;;;;9.13;2.90;;;14.80;99.90;;;;;;4989550;28;20114;-77
2023/08/14 03:38:07;;;;;;;7.50;2.63;;;14.90;99.90;;;;;;4990008;28;20061;-78
2023/08/14 03:40:33;;;;;;;8.68;2.40;;;14.90;99.90;;;;;;4989387;28;20058;-77
2023/08/14 03:42:58;;;;;;;10.18;2.95;;;14.80;99.90;;;;;;4990265;28;20386;-77
2023/08/14 03:45:24;;;;;;;6.55;2.70;;;14.90;99.90;;;;;;4990533;28;20102;-78
2023/08/14 03:47:50;;;;;;;7.47;2.42;;;14.80;99.90;;;;;;4990558;28;20110;-78
2023/08/14 03:50:16;;;;;;;8.77;2.83;;;14.80;99.90;;;;;;4989827;28;20162;-77
2023/08/14 03:52:41;;;;;;;10.88;3.35;;;14.80;99.90;;;;;;4990742;28;20029;-77
2023/08/14 03:55:08;;;;;;;9.85;3.13;;;14.80;99.90;;;;;;4990008;28;20109;-76
2023/08/14 03:57:34;;;;;;;11.27;3.13;;;14.80;99.90;;;;;;4993271;28;20027;-76
2023/08/14 04:00:00;;;;;;;12.05;3.03;;;14.80;99.90;;;;;;4994032;28;20050;-77
2023/08/14 04:02:26;;;;;;;12.25;3.13;;;14.90;99.90;;;;;;4994322;28;20357;-76
2023/08/14 04:04:51;;;;;;;9.15;3.25;;;14.90;99.90;;;;;;4992768;28;20240;-76
2023/08/14 04:07:17;;;;;;;9.35;3.15;;;14.80;99.90;;;;;;4993579;28;20018;-77
2023/08/14 04:09:43;;;;;;;9.70;3.20;;;14.80;99.90;;;;;;4994578;28;20041;-77
2023/08/14 04:12:09;;;;;;;9.43;3.10;;;14.90;99.90;;;;;;4993253;28;20030;-77
2023/08/14 04:14:35;;;;;;;8.48;2.80;;;14.80;99.90;;;;;;4993931;28;20026;-77
2023/08/14 04:17:02;;;;;;;9.20;2.90;;;14.80;99.90;;;;;;4993719;28;20476;-77
2023/08/14 04:19:28;;;;;;;9.23;2.85;;;14.80;99.90;;;;;;4993736;28;20038;-77
2023/08/14 04:21:54;;;;;;;10.50;3.03;;;14.80;99.90;;;;;;4993743;28;20026;-77
2023/08/14 04:24:19;;;;;;;12.25;3.45;;;14.80;99.90;;;;;;4993688;28;20856;-77
2023/08/14 04:26:45;;;;;;;7.22;3.10;;;14.80;99.90;;;;;;4994037;28;20041;-77
2023/08/14 04:29:11;;;;;;;11.93;3.28;;;14.80;99.90;;;;;;4993630;28;20401;-77
2023/08/14 04:31:38;;;;;;;9.30;3.30;;;14.80;99.90;;;;;;4993921;28;20022;-77
2023/08/14 04:34:05;;;;;;;9.65;3.10;;;14.80;99.90;;;;;;4992715;28;20018;-76
2023/08/14 04:36:32;;;;;;;7.85;2.88;;;14.90;99.90;;;;;;4993544;28;20027;-76
2023/08/14 04:38:58;;;;;;;11.02;3.40;;;14.80;99.90;;;;;;4993301;28;20061;-77
2023/08/14 04:41:27;;;;;;;8.95;3.25;;;14.90;99.90;;;;;;4991863;28;20027;-77
2023/08/14 04:43:54;;;;;;;5.40;2.78;;;14.80;99.90;;;;;;4993640;28;20034;-77
2023/08/14 04:46:37;;;;;;;8.68;3.20;;;14.70;99.90;;;;;;4991457;28;20244;-77
2023/08/14 04:49:04;;;;;;;14.10;3.42;;;14.80;99.90;;;;;;4993028;28;20086;-77
2023/08/14 04:51:30;;;;;;;12.23;3.33;;;14.70;99.90;;;;;;4993387;28;20534;-76
2023/08/14 04:53:57;;;;;;;10.63;3.30;;;14.70;99.90;;;;;;4993375;28;20488;-76
2023/08/14 04:56:23;;;;;;;12.10;3.60;;;14.70;99.90;;;;;;4993849;28;20026;-76
2023/08/14 04:58:50;;;;;;;12.00;4.20;;;14.70;99.90;;;;;;4992853;28;20070;-77
2023/08/14 05:01:15;;;;;;;8.43;3.50;;;14.80;99.90;;;;;;4993285;28;20060;-76
2023/08/14 05:03:41;;;;;;;15.38;3.60;;;14.70;99.90;;;;;;4992076;28;20054;-77
2023/08/14 05:06:07;;;;;;;8.38;4.13;;;14.70;99.90;;;;;;4993692;28;20102;-78
2023/08/14 05:08:33;;;;;;;13.55;3.90;;;14.80;99.90;;;;;;4994200;28;20030;-78
2023/08/14 05:10:58;;;;;;;10.20;3.40;;;14.90;99.90;;;;;;4994154;28;20035;-78
2023/08/14 05:13:24;;;;;;;11.70;3.53;;;14.80;99.90;;;;;;4992816;28;20364;-78
2023/08/14 05:15:51;;;;;;;11.43;3.92;;;14.80;99.90;;;;;;4993079;28;20387;-78
2023/08/14 05:18:17;;;;;;;7.63;3.40;;;14.80;99.90;;;;;;4992662;28;20030;-77
2023/08/14 05:20:45;;;;;;;13.55;3.92;;;14.90;99.90;;;;;;4992778;28;20333;-77
2023/08/14 05:23:11;;;;;;;8.07;3.35;;;14.80;99.90;;;;;;4992424;28;20058;-76
2023/08/14 05:25:37;;;;;;;9.20;4.22;;;14.80;99.90;;;;;;4992706;28;20131;-77
2023/08/14 05:28:04;;;;;;;9.95;4.20;;;14.80;99.90;;;;;;4991649;28;20073;-77
2023/08/14 05:30:30;;;;;;;7.28;3.72;;;14.90;99.90;;;;;;4992945;28;20090;-78
2023/08/14 05:32:56;;;;;;;9.35;3.92;;;14.80;99.90;;;;;;4993039;28;20505;-78
2023/08/14 05:35:23;;;;;;;13.18;4.45;;;14.90;99.90;;;;;;4991433;28;20522;-78
2023/08/14 05:37:55;;;;;;;12.68;3.45;;;14.90;99.90;;;;;;4992258;28;20058;-77
2023/08/14 05:40:28;;;;;;;13.80;3.90;;;14.90;99.90;;;;;;4991595;28;20047;-77
2023/08/14 05:43:06;;;;;;;9.57;4.15;;;15.00;99.90;;;;;;4992953;28;20058;-77
2023/08/14 05:45:58;;;;;;;12.35;4.28;;;15.00;99.90;;;;;;4992052;28;20030;-76
2023/08/14 05:48:24;;;;;;;12.90;4.13;;;15.00;99.90;;;;;;4988700;28;20034;-76
2023/08/14 05:50:53;;;;;;;9.25;4.05;;;15.00;99.90;;;;;;4991976;28;20057;-76
2023/08/14 05:53:19;;;;;;;7.22;3.17;;;15.00;99.90;;;;;;4992256;28;20053;-77
2023/08/14 05:55:45;;;;;;;10.25;3.88;;;15.10;99.90;;;;;;4992102;28;20061;-77
2023/08/14 05:58:11;;;;;;;9.32;3.90;;;15.10;99.90;;;;;;4991463;28;20134;-77
2023/08/14 06:00:38;;;;;;;9.13;2.92;;;15.00;99.90;;;;;;4993649;28;20045;-77
2023/08/14 06:03:04;;;;;;;5.15;3.03;;;15.10;99.90;;;;;;4992434;28;20022;-77
2023/08/14 06:05:30;;;;;;;8.10;3.42;;;15.10;99.90;;;;;;4992679;28;20026;-78
2023/08/14 06:07:58;;;;;;;10.27;3.60;;;15.10;99.90;;;;;;4992706;28;20153;-78
2023/08/14 06:10:24;;;;;;;8.85;3.30;;;15.10;99.90;;;;;;4991951;28;20489;-78
2023/08/14 06:12:50;;;;;;;12.05;3.67;;;15.10;99.90;;;;;;4992536;28;20097;-78
2023/08/14 06:15:21;;;;;;;7.32;3.05;;;15.10;99.90;;;;;;4991107;28;20460;-78
2023/08/14 06:17:48;;;;;;;10.90;3.60;;;15.10;99.90;;;;;;4990569;28;20034;-78
2023/08/14 06:20:14;;;;;;;8.82;3.40;;;15.10;99.90;;;;;;4988950;28;20185;-77
2023/08/14 06:22:46;;;;;;;10.93;3.33;;;15.00;99.90;;;;;;4991747;28;20031;-77
2023/08/14 06:25:12;;;;;;;11.30;3.60;;;15.00;99.90;;;;;;4991153;28;20084;-77
2023/08/14 06:27:39;;;;;;;10.65;3.40;;;15.10;99.90;;;;;;4991402;28;20113;-77
2023/08/14 06:30:10;;;;;;;9.70;3.45;;;15.00;99.90;;;;;;4991272;28;20061;-77
2023/08/14 06:32:36;;;;;;;11.18;3.60;;;15.10;99.90;;;;;;4991293;28;20065;-77
2023/08/14 06:35:03;;;;;;;10.10;3.25;;;15.10;99.90;;;;;;4991200;28;20037;-77
2023/08/14 06:37:29;;;;;;;10.60;3.78;;;15.10;99.90;;;;;;4990154;28;20036;-78
2023/08/14 06:39:55;;;;;;;7.50;2.88;;;15.20;99.90;;;;;;4990980;28;20039;-77
2023/08/14 06:42:20;;;;;;;12.35;3.60;;;15.20;99.90;;;;;;4990950;28;20026;-78
2023/08/14 06:44:46;;;;;;;10.38;3.10;;;15.30;99.90;;;;;;4991400;28;20487;-77
2023/08/14 06:47:12;;;;;;;13.18;2.92;;;15.40;99.90;;;;;;4989310;28;20022;-77
2023/08/14 06:49:38;;;;;;;11.23;3.17;;;15.40;99.90;;;;;;4990670;28;20069;-77
2023/08/14 06:52:04;;;;;;;6.43;2.60;;;15.50;99.90;;;;;;4990979;28;20065;-76
2023/08/14 06:54:30;;;;;;;8.70;3.10;;;15.60;99.90;;;;;;4990528;28;20397;-77
2023/08/14 06:56:56;;;;;;;7.93;2.72;;;15.70;99.90;;;;;;4991146;28;20026;-77
2023/08/14 06:59:21;;;;;;;4.00;2.50;;;15.80;99.90;;;;;;4990616;28;20467;-77
2023/08/14 07:01:47;;;;;;;5.18;2.85;;;15.70;99.90;;;;;;4990665;28;20506;-76
2023/08/14 07:04:13;;;;;;;9.35;2.95;;;15.70;99.90;;;;;;4990167;28;20030;-77
2023/08/14 07:06:39;;;;;;;6.32;2.10;;;15.80;99.90;;;;;;4991147;28;20399;-77
2023/08/14 07:09:04;;;;;;;5.70;2.35;;;15.80;99.90;;;;;;4991183;28;20348;-77
2023/08/14 07:11:38;;;;;;;11.80;2.75;;;15.90;99.90;;;;;;4990386;28;20058;-75
2023/08/14 07:14:04;;;;;;;7.15;2.33;;;15.90;99.90;;;;;;4991001;28;20026;-78
2023/08/14 07:16:30;;;;;;;7.80;2.50;;;15.90;99.90;;;;;;4990778;28;20037;-77
2023/08/14 07:18:56;;;;;;;9.93;2.88;;;15.90;99.90;;;;;;4990670;28;20050;-78
2023/08/14 07:21:22;;;;;;;8.60;2.88;;;15.90;99.90;;;;;;4990523;28;20058;-78
2023/08/14 07:23:47;;;;;;;6.30;2.75;;;15.90;99.90;;;;;;4990759;28;20053;-77
2023/08/14 07:26:13;;;;;;;5.43;2.20;;;15.90;99.90;;;;;;4990224;28;20148;-78
2023/08/14 07:28:39;;;;;;;7.55;2.33;;;15.90;99.90;;;;;;4990651;28;20044;-77
2023/08/14 07:31:06;;;;;;;5.10;2.10;;;15.90;99.90;;;;;;4991416;28;20080;-77
2023/08/14 07:33:32;;;;;;;6.85;2.10;;;16.00;99.90;;;;;;4994238;28;20026;-78
2023/08/14 07:35:58;;;;;;;5.40;2.20;;;15.90;99.90;;;;;;4995456;28;20101;-77
2023/08/14 07:38:25;;;;;;;7.30;2.08;;;15.90;99.90;;;;;;4993140;28;20059;-76
2023/08/14 07:40:51;;;;;;;7.82;2.53;;;15.90;99.90;;;;;;4993967;28;20097;-76
2023/08/14 07:43:17;;;;;;;8.68;2.20;;;16.00;99.90;;;;;;4992580;28;20038;-76
2023/08/14 07:45:43;;;;;;;4.63;2.03;;;16.00;99.90;;;;;;4994298;28;20027;-77
2023/08/14 07:48:10;;;;;;;5.03;2.05;;;16.10;99.90;;;;;;4994248;28;20038;-78
2023/08/14 07:50:35;;;;;;;10.57;2.42;;;16.10;99.90;;;;;;4993264;28;20470;-78
2023/08/14 07:53:03;;;;;;;8.07;2.30;;;16.20;99.90;;;;;;4993928;28;20030;-76
2023/08/14 07:55:29;;;;;;;7.13;2.08;;;16.30;99.90;;;;;;4993145;28;20040;-77
2023/08/14 07:57:54;;;;;;;5.78;2.13;;;16.40;99.90;;;;;;4994217;28;20026;-76
2023/08/14 08:00:20;;;;;;;4.90;1.90;;;16.30;99.90;;;;;;4992811;28;20084;-78
2023/08/14 08:02:46;;;;;;;6.20;2.10;;;16.30;99.90;;;;;;4994144;28;20030;-77
2023/08/14 08:05:12;;;;;;;5.70;1.95;;;16.40;99.90;;;;;;4993862;28;20125;-77
2023/08/14 08:07:37;;;;;;;8.38;2.42;;;16.50;99.90;;;;;;4993974;28;20027;-76
2023/08/14 08:10:03;;;;;;;9.85;2.08;;;16.50;99.90;;;;;;4993906;28;20440;-77
2023/08/14 08:12:29;;;;;;;5.47;1.83;;;16.50;99.90;;;;;;4993445;28;20025;-78
2023/08/14 08:14:55;;;;;;;5.07;1.63;;;16.50;99.90;;;;;;4992452;28;20030;-78
2023/08/14 08:17:21;;;;;;;7.97;2.35;;;16.60;99.90;;;;;;4991821;28;20046;-77
2023/08/14 08:19:46;;;;;;;9.20;2.13;;;16.60;99.90;;;;;;4993589;28;20419;-77
2023/08/14 08:22:13;;;;;;;4.82;1.88;;;16.60;99.90;;;;;;4993913;28;20045;-76
2023/08/14 08:24:39;;;;;;;4.18;1.90;;;16.60;99.90;;;;;;4993619;28;20057;-76
2023/08/14 08:27:04;;;;;;;6.25;2.10;;;16.70;99.90;;;;;;4993874;28;20054;-78
2023/08/14 08:29:30;;;;;;;9.27;2.28;;;16.70;99.90;;;;;;4991237;28;20034;-77
2023/08/14 08:31:56;;;;;;;6.65;1.85;;;16.70;99.90;;;;;;4993702;28;20075;-78
2023/08/14 08:34:22;;;;;;;6.57;2.10;;;16.80;99.90;;;;;;4992360;28;20041;-77
2023/08/14 08:36:47;;;;;;;4.88;1.90;;;16.80;99.90;;;;;;4993419;28;20022;-77
2023/08/14 08:39:13;;;;;;;5.07;2.00;;;16.80;99.90;;;;;;4993299;28;20129;-77
2023/08/14 08:41:43;;;;;;;6.78;2.08;;;16.80;99.90;;;;;;4992103;28;20030;-77
2023/08/14 08:44:25;;;;;;;8.63;2.47;;;16.80;99.90;;;;;;4991902;28;20038;-76
2023/08/14 08:46:57;;;;;;;7.63;2.10;;;16.70;99.90;;;;;;4993167;28;20046;-78
2023/08/14 08:49:24;;;;;;;8.25;2.10;;;16.70;99.90;;;;;;4992789;28;20030;-78
2023/08/14 08:51:51;;;;;;;9.07;2.00;;;16.70;99.90;;;;;;4993703;28;20117;-78
2023/08/14 08:54:18;;;;;;;7.82;1.95;;;16.70;99.90;;;;;;4992900;28;20065;-78
2023/08/14 08:56:44;;;;;;;8.70;1.85;;;16.60;99.90;;;;;;4993271;28;20018;-78
2023/08/14 08:59:11;;;;;;;7.28;2.03;;;16.60;99.90;;;;;;4993205;28;20062;-78
2023/08/14 09:01:38;;;;;;;7.65;1.98;;;16.70;99.90;;;;;;4992786;28;20185;-77
2023/08/14 09:04:04;;;;;;;6.13;1.90;;;16.70;99.90;;;;;;4991693;28;20365;-77
2023/08/14 09:06:30;;;;;;;7.10;2.50;;;16.70;99.90;;;;;;4992648;28;20101;-78
2023/08/14 09:08:56;;;;;;;5.80;2.20;;;16.90;99.90;;;;;;4975747;28;20060;-77
2023/08/14 09:11:22;;;;;;;7.78;1.80;;;16.90;99.90;;;;;;4991317;28;20026;-78
2023/08/14 09:13:48;;;;;;;7.57;2.40;;;17.00;99.90;;;;;;4993129;28;20502;-78
2023/08/14 09:16:15;;;;;;;7.22;1.98;;;17.10;99.90;;;;;;4993164;28;20034;-78
2023/08/14 09:18:45;;;;;;;9.57;1.98;;;17.20;99.90;;;;;;4992699;28;20030;-77
2023/08/14 09:21:12;;;;;;;8.18;2.60;;;17.30;99.90;;;;;;4992634;28;20036;-78
2023/08/14 09:23:39;;;;;;;6.25;1.75;;;17.40;99.90;;;;;;4992193;28;20038;-78
2023/08/14 09:26:05;;;;;;;5.70;1.77;;;17.60;99.90;;;;;;4993095;28;20041;-78
2023/08/14 09:28:31;;;;;;;6.95;1.75;;;17.70;99.90;;;;;;4992523;28;20030;-78
2023/08/14 09:31:09;;;;;;;5.00;2.13;;;17.80;99.90;;;;;;4991208;28;20030;-77
2023/08/14 09:33:37;;;;;;;4.07;1.48;;;18.00;99.90;;;;;;4991829;28;20081;-78
2023/08/14 09:36:03;;;;;;;8.20;2.00;;;18.00;99.90;;;;;;4993310;28;20113;-78
2023/08/14 09:38:31;;;;;;;7.53;1.80;;;18.10;99.90;;;;;;4992570;28;20492;-78
2023/08/14 09:40:58;;;;;;;6.80;2.65;;;18.20;99.90;;;;;;4992889;28;20030;-77
2023/08/14 09:43:24;;;;;;;6.28;1.40;;;18.20;99.90;;;;;;4992860;28;20118;-78
2023/08/14 09:45:51;;;;;;;4.10;1.45;;;18.20;99.90;;;;;;4992797;28;20042;-78
2023/08/14 09:48:17;;;;;;;5.70;1.40;;;18.40;99.90;;;;;;4992065;28;20042;-78
2023/08/14 09:50:49;;;;;;;5.43;1.92;;;18.50;99.90;;;;;;4991082;28;20404;-77
2023/08/14 09:53:15;;;;;;;5.93;2.05;;;18.60;99.90;;;;;;4989812;28;20137;-77
2023/08/14 09:55:42;;;;;;;8.05;1.83;;;18.60;99.90;;;;;;4990819;28;20026;-77
2023/08/14 09:58:09;;;;;;;6.40;1.60;;;18.70;99.90;;;;;;4991812;28;20041;-78
2023/08/14 10:00:38;;;;;;;6.03;1.73;;;18.70;99.90;;;;;;4989387;28;20356;-77
2023/08/14 10:03:07;;;;;;;8.50;1.95;;;18.80;99.90;;;;;;4991809;28;20388;-77
2023/08/14 10:05:34;;;;;;;5.38;2.17;;;18.80;99.90;;;;;;4990644;28;20069;-78
2023/08/14 10:08:01;;;;;;;10.38;2.10;;;18.80;99.90;;;;;;4991366;28;20030;-78
2023/08/14 10:10:30;;;;;;;7.88;2.25;;;18.80;99.90;;;;;;4990352;28;20114;-78
2023/08/14 10:12:58;;;;;;;5.47;1.75;;;18.60;99.90;;;;;;4991611;28;20019;-78
2023/08/14 10:15:34;;;;;;;4.93;1.88;;;18.60;99.90;;;;;;4991123;28;20101;-79
2023/08/14 10:18:22;;;;;;;9.38;2.05;;;18.60;99.90;;;;;;4991091;28;20030;-77
2023/08/14 10:20:50;;;;;;;4.45;1.42;;;18.50;99.90;;;;;;4991627;28;20081;-77
2023/08/14 10:23:16;;;;;;;6.15;1.65;;;18.60;99.90;;;;;;4991799;28;20045;-78
2023/08/14 10:25:47;;;;;;;4.80;1.35;;;18.70;99.90;;;;;;4991913;28;20022;-78
2023/08/14 10:28:12;;;;;;;7.30;1.42;;;18.60;99.90;;;;;;4991785;28;20033;-78
2023/08/14 10:30:39;;;;;;;5.45;1.50;;;18.60;99.90;;;;;;4991008;28;20380;-78
2023/08/14 10:33:06;;;;;;;2.78;1.15;;;18.60;99.90;;;;;;4991910;28;20053;-78
2023/08/14 10:35:47;;;;;;;7.65;1.55;;;18.60;99.90;;;;;;4990896;28;20034;-78
2023/08/14 10:38:14;;;;;;;2.95;1.30;;;18.60;99.90;;;;;;4991981;28;20060;-78
2023/08/14 10:40:51;;;;;;;4.80;1.73;;;18.60;99.90;;;;;;4989747;28;20026;-79
2023/08/14 10:43:17;;;;;;;3.10;1.65;;;18.60;99.90;;;;;;4992616;28;20379;-79
2023/08/14 10:45:43;;;;;;;4.95;1.40;;;18.70;99.90;;;;;;4991830;28;20026;-79
2023/08/14 10:48:10;;;;;;;4.03;1.48;;;18.70;99.90;;;;;;4992572;28;20368;-79
2023/08/14 10:50:35;;;;;;;5.55;1.40;;;18.70;99.90;;;;;;4991189;28;20106;-79
2023/08/14 10:53:03;;;;;;;4.10;1.27;;;18.70;99.90;;;;;;4991653;28;20050;-78
2023/08/14 10:55:39;;;;;;;7.30;1.63;;;18.70;99.90;;;;;;4993760;28;20034;-79
2023/08/14 10:58:31;;;;;;;6.25;1.65;;;18.80;99.90;;;;;;4991672;28;20555;-79
2023/08/14 11:01:01;;;;;;;3.72;1.30;;;18.90;99.90;;;;;;4992068;28;20093;-78
2023/08/14 11:03:27;;;;;;;6.70;1.40;;;19.00;99.90;;;;;;4991495;28;20464;-78
2023/08/14 11:05:53;;;;;;;4.40;1.63;;;19.00;99.90;;;;;;4994936;28;20027;-78
2023/08/14 11:08:20;;;;;;;7.13;1.67;;;19.00;99.90;;;;;;4997727;28;20030;-78
2023/08/14 11:10:49;;;;;;;6.93;1.92;;;18.90;99.90;;;;;;4997569;28;20030;-79
2023/08/14 11:13:15;;;;;;;6.35;1.60;;;18.90;99.90;;;;;;4997854;28;20022;-79
2023/08/14 11:15:42;;;;;;;7.22;1.67;;;18.90;99.90;;;;;;4997325;28;20019;-80
2023/08/14 11:18:11;;;;;;;5.30;1.38;;;18.90;99.90;;;;;;4997817;28;20038;-79
2023/08/14 11:20:42;;;;;;;4.72;1.42;;;18.90;99.90;;;;;;4997372;28;20034;-78
2023/08/14 11:23:09;;;;;;;4.20;1.42;;;19.00;99.90;;;;;;4997393;28;20030;-79
2023/08/14 11:25:36;;;;;;;6.93;1.30;;;19.00;99.90;;;;;;4996793;28;20023;-79
2023/08/14 11:28:01;;;;;;;3.50;1.05;;;19.10;99.90;;;;;;4997711;28;20084;-78
2023/08/14 11:30:34;;;;;;;4.35;1.15;;;19.10;99.90;;;;;;4996965;28;20493;-79
2023/08/14 11:33:06;;;;;;;5.53;1.40;;;19.20;99.90;;;;;;4997543;28;20432;-77
2023/08/14 11:35:32;;;;;;;2.92;1.00;;;19.20;99.90;;;;;;4997007;28;20074;-79
2023/08/14 11:37:58;;;;;;;14.85;5.53;;;19.30;99.90;;;;;;4997539;28;20093;-78
2023/08/14 11:40:24;;;;;;;6.07;1.60;;;19.30;99.90;;;;;;4997277;28;20038;-79
2023/08/14 11:42:50;;;;;;;3.55;1.20;;;19.40;99.90;;;;;;4997760;28;20034;-77
2023/08/14 11:45:16;;;;;;;3.47;1.40;;;19.40;99.90;;;;;;4997492;28;20027;-79
2023/08/14 11:47:48;;;;;;;4.10;1.15;;;19.50;99.90;;;;;;4997201;28;20117;-78
2023/08/14 11:50:15;;;;;;;3.10;1.25;;;19.60;99.90;;;;;;4997681;28;20030;-78
2023/08/14 11:52:42;;;;;;;2.63;1.08;;;19.70;99.90;;;;;;4997596;28;20062;-78
2023/08/14 11:55:08;;;;;;;2.15;1.10;;;19.70;99.90;;;;;;4999355;28;20034;-79
2023/08/14 11:57:35;;;;;;;3.88;1.30;;;19.70;99.90;;;;;;4997619;28;20089;-79
2023/08/14 12:00:10;;;;;;;4.25;1.05;;;19.80;99.90;;;;;;4997855;28;20475;-79
2023/08/14 12:02:36;;;;;;;5.45;1.20;;;19.90;99.90;;;;;;4996934;28;20035;-79
2023/08/14 12:05:02;;;;;;;4.43;1.58;;;20.00;99.90;;;;;;4996127;28;20062;-78
2023/08/14 12:07:29;;;;;;;3.25;1.15;;;20.00;99.90;;;;;;4996929;28;20030;-78
2023/08/14 12:09:56;;;;;;;7.57;1.77;;;20.10;99.90;;;;;;4997348;28;20069;-78
2023/08/14 12:12:22;;;;;;;4.70;1.33;;;20.00;99.90;;;;;;4997353;28;20113;-78
2023/08/14 12:14:50;;;;;;;4.78;1.40;;;20.00;99.90;;;;;;4996735;28;20057;-79
2023/08/14 12:17:18;;;;;;;6.07;1.40;;;20.00;99.90;;;;;;4994281;28;20030;-78
2023/08/14 12:19:57;;;;;;;3.15;1.10;;;20.00;99.90;;;;;;4993704;28;20464;-78
2023/08/14 12:22:24;;;;;;;4.57;1.20;;;20.10;99.90;;;;;;4994374;28;20034;-79
2023/08/14 12:24:51;;;;;;;5.88;1.63;;;20.20;99.90;;;;;;4992272;28;20077;-78
2023/08/14 12:27:24;;;;;;;3.70;1.02;;;20.20;99.90;;;;;;4993900;28;20022;-80
2023/08/14 12:29:51;;;;;;;4.03;1.38;;;20.20;99.90;;;;;;4993310;28;20034;-79
2023/08/14 12:32:18;;;;;;;3.80;1.58;;;20.30;99.90;;;;;;4993114;28;20519;-78
2023/08/14 12:34:44;;;;;;;4.45;1.38;;;20.30;99.90;;;;;;4993238;28;20030;-78
2023/08/14 12:37:14;;;;;;;4.05;1.40;;;20.30;99.90;;;;;;4993726;28;20026;-78
2023/08/14 12:39:42;;;;;;;4.15;1.58;;;20.30;99.90;;;;;;4992921;28;20055;-78
2023/08/14 12:42:08;;;;;;;3.67;0.90;;;20.40;99.90;;;;;;4993903;28;20102;-78
2023/08/14 12:44:34;;;;;;;3.35;1.40;;;20.40;99.90;;;;;;4993072;28;20513;-78
2023/08/14 12:46:59;;;;;;;3.63;1.30;;;20.50;99.90;;;;;;4993841;28;20124;-78